SGASSGES

Guest
Details From SGAS - SILVIO PETTIROSSI INTL
To SGES - GUARANI INTL
Flight Number -
Tags generated
Created
Modified
Stats Distance 146 nm / 270 km
Max Altitude 17,700 ft / 5,395 m
Waypoints 3
Social Downloads 1
Likes 0
Share VATSIM

Download

Looking for another format? Having issues loading an existing format? Contact us
Advertisement - Login to hide

Notes

Basic altitude profile: - Ascent Rate: 2500ft/min - Ascent Speed: 250kts - Cruise Altitude: 35000ft - Cruise Speed: 420kts - Descent Rate: 1500ft/min - Descent Speed: 250kts Options: - Use NATs: yes - Use PACOTS: yes - Use low airways: yes - Use high airways: yes

Route

SGAS ROLOK SGES

ID Type Via Altitude Latitude Longitude Leg Dist Tot Dist Heading (true) Name
O SGAS APT - 0 ft / 0 m -25.23985˚ -57.51914˚ - 0 nm - SILVIO PETTIROSSI INTL
ROLOK FIX - 17,700 ft / 5,395 m -25.29889˚ -56.60389˚ 49 nm 49 nm 94° / 94° -
O SGES APT - 0 ft / 0 m -25.45550˚ -54.84359˚ 95 nm 145 nm 96° / 95° GUARANI INTL

Altitude Profile

Advertisement - Login to hide

SGAS

Details ICAO SGAS (ASU)
Name SILVIO PETTIROSSI INTL
Region Paraguay
Timezone America/Asuncion (UTC-3.0)
Stats Elevation 292 ft / 89 m (AMSL)
Location -25.239850° -57.519135°
Runways 1
Magnetic Variation 14.155° W

METAR

SGAS 131500Z 04011KT CAVOK 33/21 Q1010

Decode

TAF

Not found

Departure Runways

ID Width Length Bearing (true) Bearing (mag) Surface Threshold Offset Overrun Length
02 151 ft / 46 m 11,043 ft / 3,366 m 12.40° 26.56° Asphalt 0 ft / 0 m 161 ft / 49 m
20 151 ft / 46 m 11,043 ft / 3,366 m 192.40° 206.56° Asphalt 0 ft / 0 m 165 ft / 50 m

SGES

Details ICAO SGES (AGT)
Name GUARANI INTL
Region Paraguay
Timezone America/Asuncion (UTC-3.0)
Stats Elevation 846 ft / 258 m (AMSL)
Location -25.455499° -54.843593°
Runways 1
Magnetic Variation 16.079° W

METAR

SGES 131500Z 06010G20KT 020V120 CAVOK 31/20 Q1013

Decode

TAF

Not found

Destination Runways

ID Width Length Bearing (true) Bearing (mag) Surface Threshold Offset Overrun Length
05 148 ft / 45 m 11,175 ft / 3,406 m 40.64° 56.72° Asphalt 0 ft / 0 m 197 ft / 60 m
23 148 ft / 45 m 11,175 ft / 3,406 m 220.63° 236.71° Asphalt 0 ft / 0 m 197 ft / 60 m

Approach Navaids

Runway Type Ident Frequency Range Bearing (true) Bearing (mag) Slope Elevation
23 Localiser ICES 111.30 MHz 18 nm / 33 km 220.63° 236.71° - 846 ft / 258 m (AMSL)
23 Glidescope ICES 111.30 MHz 10 nm / 19 km 220.63° 236.71° 3.00° 804 ft / 245 m (AMSL)

Popular Alternatives